createdAt,value
2024-01-16T00:00:29.946Z,97768.30
2024-01-16T00:01:32.204Z,97775.07
2024-01-16T00:02:34.772Z,97776.80
2024-01-16T00:03:39.042Z,97772.52
2024-01-16T00:04:42.416Z,97779.98
2024-01-16T00:05:44.755Z,97798.44
2024-01-16T00:06:48.566Z,97793.33
2024-01-16T00:07:51.689Z,97802.61
2024-01-16T00:08:54.022Z,97795.11
2024-01-16T00:09:56.715Z,97791.41
2024-01-16T00:11:00.129Z,97792.75
2024-01-16T00:12:04.469Z,97795.05
2024-01-16T00:13:07.137Z,97783.61
2024-01-16T00:14:10.342Z,97788.34
2024-01-16T00:15:12.934Z,97782.98
2024-01-16T00:16:17.541Z,97787.98
2024-01-16T00:17:21.587Z,97786.09
2024-01-16T00:18:24.058Z,97775.91
2024-01-16T00:19:26.677Z,97773.33
2024-01-16T00:20:29.297Z,97773.88
2024-01-16T00:21:31.497Z,97769.52
2024-01-16T00:22:33.910Z,97759.84
2024-01-16T00:23:36.328Z,97758.25
2024-01-16T00:24:39.244Z,97759.84
2024-01-16T00:25:42.182Z,97762.26
2024-01-16T00:26:45.143Z,97764.67
2024-01-16T00:27:48.576Z,97766.70
2024-01-16T00:28:51.025Z,97777.03
2024-01-16T00:29:53.486Z,97782.22
2024-01-16T00:30:55.752Z,97776.32
2024-01-16T00:31:58.948Z,97777.23
2024-01-16T00:33:01.843Z,97777.31
2024-01-16T00:34:04.492Z,97780.73
2024-01-16T00:35:07.516Z,97765.23
2024-01-16T00:36:11.125Z,97769.27
2024-01-16T00:37:13.810Z,97763.96
2024-01-16T00:38:16.130Z,97759.84
2024-01-16T00:39:18.732Z,97776.19
2024-01-16T00:40:21.826Z,97772.75
2024-01-16T00:41:25.546Z,97778.88
2024-01-16T00:42:30.004Z,97772.12
2024-01-16T00:43:32.893Z,97767.17
2024-01-16T00:44:36.694Z,97764.12
2024-01-16T00:45:41.136Z,97757.34
2024-01-16T00:46:44.743Z,97756.97
2024-01-16T00:47:47.401Z,97746.39
2024-01-16T00:48:49.933Z,97754.59
2024-01-16T00:49:52.198Z,97750.91
2024-01-16T00:50:55.364Z,97751.58
2024-01-16T00:51:57.848Z,97750.17
2024-01-16T00:53:00.357Z,97750.17
2024-01-16T00:54:03.203Z,97760.27
2024-01-16T00:55:06.219Z,97763.08
2024-01-16T00:56:09.704Z,97764.95
2024-01-16T00:57:12.816Z,97769.06
2024-01-16T00:58:15.780Z,97761.20
2024-01-16T00:59:18.103Z,97777.19
2024-01-16T01:00:20.827Z,97760.04
2024-01-16T01:01:24.168Z,97763.48
2024-01-16T01:02:28.460Z,97767.77
2024-01-16T01:03:31.188Z,97769.58
2024-01-16T01:04:35.026Z,97767.31
2024-01-16T01:05:37.462Z,97759.59
2024-01-16T01:06:40.256Z,97756.09
2024-01-16T01:07:42.482Z,97748.04
2024-01-16T01:08:45.056Z,97760.23
2024-01-16T01:09:47.169Z,97764.48
2024-01-16T01:10:49.733Z,97755.27
2024-01-16T01:11:52.182Z,97754.85
2024-01-16T01:12:54.824Z,97758.34
2024-01-16T01:13:57.743Z,97756.61
2024-01-16T01:15:00.119Z,97759.22
2024-01-16T01:16:02.676Z,97755.59
2024-01-16T01:17:06.253Z,97750.38
2024-01-16T01:18:09.034Z,97756.20
2024-01-16T01:19:11.625Z,97751.72
2024-01-16T01:20:15.448Z,97752.37
2024-01-16T01:21:18.249Z,97752.13
2024-01-16T01:22:20.767Z,97752.27
2024-01-16T01:23:24.122Z,97747.22
2024-01-16T01:24:26.530Z,97752.44
2024-01-16T01:25:28.692Z,97751.86
2024-01-16T01:26:31.730Z,97744.80
2024-01-16T01:27:35.205Z,97748.81
2024-01-16T01:28:39.356Z,97746.40
2024-01-16T01:29:42.809Z,97744.59
2024-01-16T01:30:46.394Z,97740.00
2024-01-16T01:31:49.039Z,97750.10
2024-01-16T01:32:52.155Z,97746.86
2024-01-16T01:33:54.747Z,97754.52
2024-01-16T01:34:57.042Z,97755.89
2024-01-16T01:36:01.494Z,97761.05
2024-01-16T01:37:04.128Z,97760.59
2024-01-16T01:38:08.114Z,97765.01
2024-01-16T01:39:11.595Z,97765.01
2024-01-16T01:40:18.255Z,97764.05
2024-01-16T01:41:20.373Z,97760.51
2024-01-16T01:42:22.570Z,97762.19
2024-01-16T01:43:26.109Z,97760.02
2024-01-16T01:44:28.589Z,97758.28
2024-01-16T01:45:31.246Z,97762.45
2024-01-16T01:46:35.582Z,97767.75
2024-01-16T01:47:39.946Z,97772.77
2024-01-16T01:48:43.904Z,97769.16
2024-01-16T01:49:46.343Z,97780.32
2024-01-16T01:50:49.255Z,97783.32
2024-01-16T01:51:53.030Z,97781.75
2024-01-16T01:52:55.708Z,97779.45
2024-01-16T01:53:59.795Z,97785.47
2024-01-16T01:55:02.824Z,97785.47
2024-01-16T01:57:20.574Z,97786.16
2024-01-16T01:58:23.887Z,97792.75
2024-01-16T01:59:26.595Z,97799.45
2024-01-16T02:00:29.369Z,97808.75
2024-01-16T02:01:33.642Z,97809.73
2024-01-16T02:02:36.055Z,97807.52
2024-01-16T02:03:46.980Z,97809.12
2024-01-16T02:04:49.886Z,97803.55
2024-01-16T02:05:53.213Z,97795.84
2024-01-16T02:06:58.516Z,97795.84
2024-01-16T02:08:01.021Z,97792.38
2024-01-16T02:09:05.524Z,97797.42
2024-01-16T02:10:09.758Z,97796.59
2024-01-16T02:11:12.737Z,97801.00
2024-01-16T02:12:16.173Z,97795.03
2024-01-16T02:13:22.221Z,97802.68
2024-01-16T02:14:24.698Z,97794.32
2024-01-16T02:15:26.784Z,97778.18
2024-01-16T02:16:32.850Z,97784.20
2024-01-16T02:17:35.085Z,97777.42
2024-01-16T02:18:37.647Z,97780.61
2024-01-16T02:19:39.968Z,97777.03
2024-01-16T02:20:43.391Z,97775.23
2024-01-16T02:21:51.187Z,97788.73
2024-01-16T02:22:56.736Z,97783.47
2024-01-16T02:23:59.165Z,97785.15
2024-01-16T02:25:02.585Z,97778.59
2024-01-16T02:26:05.611Z,97777.73
2024-01-16T02:27:08.183Z,97777.73
2024-01-16T02:28:11.080Z,97777.72
2024-01-16T02:29:13.833Z,97774.88
2024-01-16T02:30:17.209Z,97771.43
2024-01-16T02:31:20.124Z,97776.46
2024-01-16T02:32:22.917Z,97767.81
2024-01-16T02:33:25.616Z,97773.11
2024-01-16T02:34:28.090Z,97775.66
2024-01-16T02:35:30.256Z,97773.98
2024-01-16T02:36:33.762Z,97770.67
2024-01-16T02:37:36.312Z,97771.53
2024-01-16T02:38:38.692Z,97776.80
2024-01-16T02:39:41.097Z,97778.00
2024-01-16T02:40:43.998Z,97773.78
2024-01-16T02:41:46.364Z,97772.85
2024-01-16T02:42:48.674Z,97782.29
2024-01-16T02:43:53.037Z,97779.80
2024-01-16T02:44:58.441Z,97777.95
2024-01-16T02:46:02.370Z,97777.95
2024-01-16T02:47:06.807Z,97782.24
2024-01-16T02:48:10.558Z,97785.55
2024-01-16T02:49:13.697Z,97779.70
2024-01-16T02:50:16.672Z,97785.71
2024-01-16T02:51:18.999Z,97785.71
2024-01-16T02:52:21.220Z,97794.98
2024-01-16T02:53:23.322Z,97792.55
2024-01-16T02:54:25.885Z,97786.47
2024-01-16T02:55:28.368Z,97797.58
2024-01-16T02:56:30.797Z,97790.64
2024-01-16T02:57:35.027Z,97794.76
2024-01-16T02:58:37.797Z,97797.26
2024-01-16T02:59:39.938Z,97792.48
2024-01-16T03:00:42.513Z,97781.42
2024-01-16T03:01:45.270Z,97789.70
2024-01-16T03:02:49.008Z,97783.80
2024-01-16T03:03:53.787Z,97778.70
2024-01-16T03:04:56.506Z,97786.56
2024-01-16T03:06:00.090Z,97785.59
2024-01-16T03:07:03.147Z,97783.05
2024-01-16T03:08:06.860Z,97783.00
2024-01-16T03:09:09.495Z,97787.34
2024-01-16T03:10:12.898Z,97778.94
2024-01-16T03:11:16.214Z,97781.64
2024-01-16T03:12:19.319Z,97785.80
2024-01-16T03:13:21.747Z,97786.08
2024-01-16T03:14:24.050Z,97782.84
2024-01-16T03:15:26.302Z,97787.76
2024-01-16T03:16:28.766Z,97789.61
2024-01-16T03:17:31.869Z,97786.25
2024-01-16T03:18:35.145Z,97785.59
2024-01-16T03:19:37.853Z,97789.83
2024-01-16T03:20:40.252Z,97797.56
2024-01-16T03:21:45.379Z,97798.34
2024-01-16T03:22:47.773Z,97800.78
2024-01-16T03:23:50.609Z,97802.45
2024-01-16T03:24:53.236Z,97794.77
2024-01-16T03:25:55.493Z,97808.62
2024-01-16T03:26:58.988Z,97807.03
2024-01-16T03:28:01.290Z,97798.58
2024-01-16T03:29:03.563Z,97804.73
2024-01-16T03:30:09.029Z,97802.20
2024-01-16T03:31:15.818Z,97806.58
2024-01-16T03:32:20.833Z,97800.62
2024-01-16T03:33:23.301Z,97799.70
2024-01-16T03:34:25.486Z,97802.15
2024-01-16T03:35:27.938Z,97810.55
2024-01-16T03:36:30.926Z,97810.45
2024-01-16T03:37:34.578Z,97811.42
2024-01-16T03:38:40.720Z,97806.37
2024-01-16T03:39:44.860Z,97808.83
2024-01-16T03:40:48.735Z,97812.03
2024-01-16T03:41:51.270Z,97799.25
2024-01-16T03:42:53.783Z,97796.69
2024-01-16T03:43:57.263Z,97800.27
2024-01-16T03:44:59.472Z,97799.30
2024-01-16T03:46:02.057Z,97793.25
2024-01-16T03:47:05.124Z,97796.69
2024-01-16T03:48:07.724Z,97790.68
2024-01-16T03:49:10.461Z,97793.25
2024-01-16T03:50:13.379Z,97795.69
2024-01-16T03:51:17.676Z,97789.83
2024-01-16T03:52:20.483Z,97795.08
2024-01-16T03:53:23.557Z,97793.49
2024-01-16T03:54:26.296Z,97788.24
2024-01-16T03:55:28.858Z,97798.28
2024-01-16T03:56:31.733Z,97798.28
2024-01-16T03:57:34.018Z,97791.75
2024-01-16T03:58:36.444Z,97788.30
2024-01-16T03:59:39.386Z,97779.80
2024-01-16T04:00:42.217Z,97782.34
2024-01-16T04:01:45.847Z,97782.34
2024-01-16T04:02:49.274Z,97784.17
2024-01-16T04:03:51.677Z,97788.55
2024-01-16T04:04:54.490Z,97793.59
2024-01-16T04:05:56.861Z,97786.66
2024-01-16T04:07:00.078Z,97780.60
2024-01-16T04:08:02.944Z,97778.21
2024-01-16T04:09:05.979Z,97778.21
2024-01-16T04:10:09.265Z,97772.27
2024-01-16T04:11:14.172Z,97777.36
2024-01-16T04:12:16.362Z,97779.03
2024-01-16T04:13:19.700Z,97774.95
2024-01-16T04:14:22.260Z,97774.05
2024-01-16T04:15:24.861Z,97773.27
2024-01-16T04:16:27.889Z,97775.77
2024-01-16T04:17:30.270Z,97777.51
2024-01-16T04:18:41.628Z,97773.88
2024-01-16T04:19:44.030Z,97783.04
2024-01-16T04:20:46.694Z,97773.07
2024-01-16T04:21:49.013Z,97773.17
2024-01-16T04:22:51.552Z,97772.31
2024-01-16T04:23:54.655Z,97780.05
2024-01-16T04:24:57.090Z,97773.33
2024-01-16T04:25:59.647Z,97774.09
2024-01-16T04:27:02.756Z,97778.36
2024-01-16T04:28:05.513Z,97781.16
2024-01-16T04:29:08.994Z,97781.16
2024-01-16T04:30:13.944Z,97786.93
2024-01-16T04:31:18.217Z,97793.84
2024-01-16T04:32:20.608Z,97789.63
2024-01-16T04:33:23.528Z,97797.35
2024-01-16T04:34:26.143Z,97803.27
2024-01-16T04:35:29.076Z,97800.10
2024-01-16T04:36:31.821Z,97806.14
2024-01-16T04:37:34.021Z,97806.10
2024-01-16T04:38:37.185Z,97801.83
2024-01-16T04:39:40.020Z,97802.65
2024-01-16T04:41:54.604Z,97798.88
2024-01-16T04:42:56.858Z,97796.69
2024-01-16T04:43:58.888Z,97799.14
2024-01-16T04:45:01.374Z,97799.91
2024-01-16T04:46:04.248Z,97804.18
2024-01-16T04:47:07.003Z,97791.39
2024-01-16T04:48:09.265Z,97802.59
2024-01-16T04:49:12.050Z,97802.73
2024-01-16T04:50:14.857Z,97801.97
2024-01-16T04:51:17.263Z,97805.44
2024-01-16T04:52:19.616Z,97809.70
2024-01-16T04:53:21.802Z,97806.20
2024-01-16T04:54:24.454Z,97812.26
2024-01-16T04:55:28.891Z,97809.56
2024-01-16T04:56:31.777Z,97805.23
2024-01-16T04:57:35.804Z,97808.65
2024-01-16T04:58:38.741Z,97814.70
2024-01-16T04:59:41.453Z,97818.01
2024-01-16T05:00:43.965Z,97812.77
2024-01-16T05:01:46.819Z,97818.74
2024-01-16T05:02:50.194Z,97811.15
2024-01-16T05:03:52.623Z,97806.91
2024-01-16T05:04:55.050Z,97807.73
2024-01-16T05:05:57.990Z,97807.73
2024-01-16T05:07:02.005Z,97812.73
2024-01-16T05:08:04.934Z,97804.23
2024-01-16T05:09:07.278Z,97803.56
2024-01-16T05:10:13.438Z,97814.61
2024-01-16T05:11:15.697Z,97795.88
2024-01-16T05:12:17.898Z,97806.00
2024-01-16T05:13:20.118Z,97805.91
2024-01-16T05:14:24.337Z,97812.77
2024-01-16T05:15:26.838Z,97817.92
2024-01-16T05:16:29.358Z,97811.23
2024-01-16T05:17:31.879Z,97807.88
2024-01-16T05:18:34.306Z,97804.47
2024-01-16T05:19:37.867Z,97811.23
2024-01-16T05:20:41.492Z,97809.47
2024-01-16T05:21:43.730Z,97809.47
2024-01-16T05:22:45.889Z,97814.42
2024-01-16T05:25:02.520Z,97805.71
2024-01-16T05:26:07.532Z,97807.69
2024-01-16T05:27:09.988Z,97814.36
2024-01-16T05:28:14.677Z,97812.77
2024-01-16T05:29:19.308Z,97811.00
2024-01-16T05:30:22.723Z,97820.22
2024-01-16T05:31:25.088Z,97807.53
2024-01-16T05:32:27.875Z,97810.95
2024-01-16T05:33:30.341Z,97810.19
2024-01-16T05:34:32.804Z,97817.92
2024-01-16T05:35:35.105Z,97817.05
2024-01-16T05:36:38.251Z,97819.66
2024-01-16T05:37:40.586Z,97818.01
2024-01-16T05:38:44.008Z,97823.09
2024-01-16T05:39:46.924Z,97825.66
2024-01-16T05:40:49.765Z,97820.55
2024-01-16T05:41:52.209Z,97822.87
2024-01-16T05:42:54.593Z,97838.09
2024-01-16T05:43:56.849Z,97828.63
2024-01-16T05:44:59.137Z,97832.56
2024-01-16T05:46:01.421Z,97818.95
2024-01-16T05:47:05.484Z,97840.34
2024-01-16T05:48:09.046Z,97831.84
2024-01-16T05:49:12.506Z,97832.61
2024-01-16T05:50:19.012Z,97827.76
2024-01-16T05:51:21.736Z,97812.83
2024-01-16T05:52:24.568Z,97818.63
2024-01-16T05:53:26.869Z,97832.85
2024-01-16T05:54:29.497Z,97832.85
2024-01-16T05:55:32.900Z,97829.49
2024-01-16T05:56:35.626Z,97839.53
2024-01-16T05:57:38.055Z,97840.34
2024-01-16T05:58:40.553Z,97836.27
2024-01-16T05:59:43.178Z,97834.44
2024-01-16T06:00:46.684Z,97836.12
2024-01-16T06:01:50.363Z,97843.91
2024-01-16T06:02:52.564Z,97838.14
2024-01-16T06:03:55.407Z,97838.14
2024-01-16T06:04:57.713Z,97842.51
2024-01-16T06:06:01.290Z,97830.34
2024-01-16T06:07:07.539Z,97831.02
2024-01-16T06:08:09.976Z,97835.16
2024-01-16T06:09:14.124Z,97838.00
2024-01-16T06:10:17.033Z,97849.66
2024-01-16T06:11:21.215Z,97841.27
2024-01-16T06:12:25.625Z,97848.91
2024-01-16T06:13:28.380Z,97851.50
2024-01-16T06:14:30.882Z,97854.95
2024-01-16T06:15:34.468Z,97848.55
2024-01-16T06:16:36.861Z,97851.96
2024-01-16T06:17:39.736Z,97845.05
2024-01-16T06:18:42.043Z,97846.73
2024-01-16T06:19:44.813Z,97850.77
2024-01-16T06:20:48.664Z,97848.12
2024-01-16T06:21:51.129Z,97853.36
2024-01-16T06:22:53.642Z,97853.13
2024-01-16T06:23:56.482Z,97854.31
2024-01-16T06:24:59.835Z,97855.84
2024-01-16T06:26:02.860Z,97858.54
2024-01-16T06:27:06.964Z,97859.47
2024-01-16T06:28:10.267Z,97869.66
2024-01-16T06:29:21.467Z,97858.84
2024-01-16T06:30:17.117Z,97856.92
2024-01-16T06:31:20.012Z,97865.31
2024-01-16T06:32:22.316Z,97866.99
2024-01-16T06:33:24.672Z,97870.31
2024-01-16T06:34:29.454Z,97871.07
2024-01-16T06:35:31.840Z,97869.34
2024-01-16T06:36:34.180Z,97865.73
2024-01-16T06:37:37.591Z,97868.06
2024-01-16T06:38:41.225Z,97862.00
2024-01-16T06:39:44.258Z,97870.98
2024-01-16T06:40:46.956Z,97867.86
2024-01-16T06:41:49.366Z,97872.77
2024-01-16T06:42:52.106Z,97869.79
2024-01-16T06:43:54.772Z,97865.77
2024-01-16T06:44:57.698Z,97868.27
2024-01-16T06:46:00.540Z,97871.81
2024-01-16T06:47:02.861Z,97861.73
2024-01-16T06:48:07.975Z,97868.41
2024-01-16T06:49:10.643Z,97868.36
2024-01-16T06:50:13.344Z,97866.58
2024-01-16T06:51:16.581Z,97867.39
2024-01-16T06:52:20.665Z,97871.48
2024-01-16T06:53:24.403Z,97875.75
2024-01-16T06:54:27.330Z,97871.42
2024-01-16T06:55:29.651Z,97871.33
2024-01-16T06:56:32.796Z,97871.28
2024-01-16T06:57:35.085Z,97877.86
2024-01-16T06:58:37.188Z,97870.16
2024-01-16T06:59:41.089Z,97865.67
2024-01-16T07:00:43.765Z,97867.35
2024-01-16T07:01:46.355Z,97867.95
2024-01-16T07:02:49.730Z,97863.48
2024-01-16T07:03:53.053Z,97854.09
2024-01-16T07:04:56.485Z,97868.30
2024-01-16T07:05:59.600Z,97863.20
2024-01-16T07:07:03.172Z,97862.98
2024-01-16T07:08:05.617Z,97868.08
2024-01-16T07:09:09.730Z,97861.88
2024-01-16T07:10:17.712Z,97867.69
2024-01-16T07:11:23.447Z,97867.58
2024-01-16T07:12:26.728Z,97870.77
2024-01-16T07:13:28.814Z,97868.34
2024-01-16T07:14:33.411Z,97867.75
2024-01-16T07:15:35.955Z,97858.59
2024-01-16T07:16:38.722Z,97871.75
2024-01-16T07:17:41.432Z,97869.84
2024-01-16T07:18:46.219Z,97860.02
2024-01-16T07:19:47.987Z,97868.42
2024-01-16T07:20:50.368Z,97873.02
2024-01-16T07:21:53.610Z,97862.88
2024-01-16T07:22:56.860Z,97868.52
2024-01-16T07:23:59.138Z,97869.61
2024-01-16T07:25:01.614Z,97865.33
2024-01-16T07:26:05.654Z,97879.86
2024-01-16T07:27:08.034Z,97866.83
2024-01-16T07:28:10.365Z,97873.55
2024-01-16T07:29:12.651Z,97866.59
2024-01-16T07:30:16.866Z,97866.77
2024-01-16T07:31:20.336Z,97881.30
2024-01-16T07:32:25.074Z,97877.62
2024-01-16T07:33:28.497Z,97867.28
2024-01-16T07:34:31.630Z,97874.25
2024-01-16T07:35:34.108Z,97872.20
2024-01-16T07:36:36.666Z,97858.20
2024-01-16T07:37:39.024Z,97867.28
2024-01-16T07:38:41.404Z,97863.55
2024-01-16T07:39:44.278Z,97859.55
2024-01-16T07:40:46.770Z,97862.98
2024-01-16T07:41:50.505Z,97864.48
2024-01-16T07:42:53.534Z,97862.44
2024-01-16T07:43:56.233Z,97858.48
2024-01-16T07:44:58.700Z,97879.39
2024-01-16T07:46:01.903Z,97873.05
2024-01-16T07:47:04.539Z,97874.07
2024-01-16T07:48:07.283Z,97865.95
2024-01-16T07:49:10.659Z,97854.50
2024-01-16T07:50:13.128Z,97854.50
2024-01-16T07:51:15.342Z,97876.89
2024-01-16T07:52:18.406Z,97870.38
2024-01-16T07:53:21.183Z,97871.17
2024-01-16T07:54:24.634Z,97866.98
2024-01-16T07:55:28.014Z,97860.58
2024-01-16T07:56:30.619Z,97874.92
2024-01-16T07:57:33.590Z,97870.53
2024-01-16T07:58:36.243Z,97871.28
2024-01-16T07:59:38.541Z,97872.38
2024-01-16T08:00:44.221Z,97883.73
2024-01-16T08:01:47.254Z,97882.40
2024-01-16T08:02:50.906Z,97876.80
2024-01-16T08:03:53.654Z,97894.12
2024-01-16T08:04:55.726Z,97880.19
2024-01-16T08:05:57.906Z,97916.98
2024-01-16T08:07:00.586Z,97885.52
2024-01-16T08:08:05.990Z,97877.22
2024-01-16T08:09:09.074Z,97879.42
2024-01-16T08:10:13.458Z,97875.13
2024-01-16T08:11:17.677Z,97883.26
2024-01-16T08:12:20.200Z,97877.26
2024-01-16T08:13:22.858Z,97882.95
2024-01-16T08:14:26.773Z,97866.80
2024-01-16T08:15:29.263Z,97866.80
2024-01-16T08:16:31.818Z,97883.84
2024-01-16T08:17:34.772Z,97876.37
2024-01-16T08:18:37.984Z,97889.90
2024-01-16T08:19:40.568Z,97870.69
2024-01-16T08:20:43.186Z,97900.13
2024-01-16T08:21:45.850Z,97887.72
2024-01-16T08:22:48.034Z,97884.73
2024-01-16T08:23:50.597Z,97896.69
2024-01-16T08:24:53.467Z,97889.47
2024-01-16T08:25:58.672Z,97884.16
2024-01-16T08:27:01.203Z,97897.96
2024-01-16T08:28:05.478Z,97891.63
2024-01-16T08:29:07.897Z,97887.99
2024-01-16T08:30:12.921Z,97892.00
2024-01-16T08:31:19.059Z,97880.08
2024-01-16T08:32:22.200Z,97888.38
2024-01-16T08:33:31.514Z,97891.34
2024-01-16T08:34:29.525Z,97885.05
2024-01-16T08:35:33.142Z,97876.83
2024-01-16T08:36:35.989Z,97880.47
2024-01-16T08:37:38.226Z,97888.41
2024-01-16T08:38:42.340Z,97896.12
2024-01-16T08:39:45.117Z,97898.70
2024-01-16T08:40:47.643Z,97879.33
2024-01-16T08:41:50.256Z,97899.55
2024-01-16T08:42:56.698Z,97886.27
2024-01-16T08:43:59.206Z,97889.94
2024-01-16T08:45:02.804Z,97891.58
2024-01-16T08:46:05.189Z,97886.45
2024-01-16T08:47:08.474Z,97888.18
2024-01-16T08:48:12.897Z,97887.77
2024-01-16T08:49:18.803Z,97903.25
2024-01-16T08:50:21.569Z,97891.72
2024-01-16T08:51:24.437Z,97892.83
2024-01-16T08:52:27.226Z,97892.83
2024-01-16T08:53:31.310Z,97892.80
2024-01-16T08:54:34.383Z,97900.62
2024-01-16T08:55:36.654Z,97902.45
2024-01-16T08:56:39.479Z,97901.92
2024-01-16T08:57:42.371Z,97903.21
2024-01-16T08:58:44.829Z,97907.52
2024-01-16T08:59:48.046Z,97901.41
2024-01-16T09:00:50.995Z,97906.15
2024-01-16T09:01:55.556Z,97914.29
2024-01-16T09:03:01.527Z,97916.40
2024-01-16T09:04:03.451Z,97903.76
2024-01-16T09:05:06.524Z,97922.22
2024-01-16T09:06:12.192Z,97926.27
2024-01-16T09:07:17.405Z,97912.53
2024-01-16T09:08:20.339Z,97908.55
2024-01-16T09:09:22.717Z,97926.52
2024-01-16T09:10:25.770Z,97920.16
2024-01-16T09:11:28.584Z,97908.35
2024-01-16T09:12:31.378Z,97929.10
2024-01-16T09:13:34.790Z,97941.96
2024-01-16T09:14:37.840Z,97921.98
2024-01-16T09:15:41.457Z,97925.64
2024-01-16T09:16:44.298Z,97927.09
2024-01-16T09:17:47.247Z,97936.63
2024-01-16T09:18:51.025Z,97928.69
2024-01-16T09:19:53.425Z,97935.86
2024-01-16T09:20:56.135Z,97947.64
2024-01-16T09:21:58.699Z,97936.95
2024-01-16T09:23:01.157Z,97933.31
2024-01-16T09:24:04.067Z,97927.14
2024-01-16T09:25:06.942Z,97943.30
2024-01-16T09:26:12.158Z,97926.69
2024-01-16T09:27:16.395Z,97935.09
2024-01-16T09:28:19.445Z,97917.44
2024-01-16T09:29:23.805Z,97933.75
2024-01-16T09:30:27.104Z,97918.75
2024-01-16T09:31:29.954Z,97928.48
2024-01-16T09:32:32.813Z,97920.75
2024-01-16T09:33:36.030Z,97933.61
2024-01-16T09:34:38.763Z,97939.41
2024-01-16T09:35:41.704Z,97925.88
2024-01-16T09:36:44.488Z,97935.58
2024-01-16T09:37:46.764Z,97925.86
2024-01-16T09:38:49.247Z,97920.75
2024-01-16T09:39:51.724Z,97930.24
2024-01-16T09:40:56.080Z,97926.45
2024-01-16T09:42:03.027Z,97939.38
2024-01-16T09:43:05.892Z,97945.27
2024-01-16T09:44:08.222Z,97944.84
2024-01-16T09:45:11.580Z,97943.78
2024-01-16T09:46:17.495Z,97951.05
2024-01-16T09:47:20.336Z,97944.24
2024-01-16T09:48:23.247Z,97948.31
2024-01-16T09:49:25.966Z,97924.78
2024-01-16T09:50:30.034Z,97929.33
2024-01-16T09:51:32.315Z,97929.33
2024-01-16T09:52:35.013Z,97934.14
2024-01-16T09:53:37.292Z,97933.88
2024-01-16T09:54:39.524Z,97928.30
2024-01-16T09:55:41.652Z,97938.45
2024-01-16T09:56:46.292Z,97936.18
2024-01-16T09:57:52.300Z,97930.97
2024-01-16T09:59:02.254Z,97933.33
2024-01-16T10:00:06.409Z,97932.58
2024-01-16T10:01:09.763Z,97958.86
2024-01-16T10:02:14.465Z,97965.14
2024-01-16T10:03:18.923Z,97948.25
2024-01-16T10:04:22.390Z,97939.66
2024-01-16T10:05:25.031Z,97936.30
2024-01-16T10:06:30.578Z,97938.93
2024-01-16T10:07:34.200Z,97941.09
2024-01-16T10:08:38.570Z,97951.08
2024-01-16T10:09:42.820Z,97939.53
2024-01-16T10:10:49.053Z,97940.52
2024-01-16T10:11:51.541Z,97940.40
2024-01-16T10:12:54.309Z,97983.42
2024-01-16T10:13:58.893Z,97965.41
2024-01-16T10:15:01.708Z,97970.21
2024-01-16T10:16:04.520Z,97960.07
2024-01-16T10:17:08.782Z,97971.70
2024-01-16T10:18:31.128Z,97955.12
2024-01-16T10:19:43.191Z,97971.38
2024-01-16T10:20:40.317Z,97958.69
2024-01-16T10:21:42.749Z,97937.98
2024-01-16T10:22:53.579Z,97934.99
2024-01-16T10:23:56.141Z,97956.82
2024-01-16T10:25:10.230Z,97955.14
2024-01-16T10:26:14.729Z,97949.91
2024-01-16T10:27:18.665Z,97958.23
2024-01-16T10:28:24.775Z,97959.92
2024-01-16T10:29:32.519Z,97960.19
2024-01-16T10:30:32.101Z,97976.77
2024-01-16T10:31:34.594Z,97941.61
2024-01-16T10:32:39.670Z,97971.23
2024-01-16T10:33:42.902Z,97989.00
2024-01-16T10:34:46.411Z,98000.91
2024-01-16T10:35:48.808Z,97958.80
2024-01-16T10:36:53.534Z,97956.01
2024-01-16T10:37:56.968Z,97960.58
2024-01-16T10:39:03.125Z,97962.48
2024-01-16T10:40:09.646Z,97957.38
2024-01-16T10:41:18.412Z,97958.55
2024-01-16T10:42:21.022Z,97957.89
2024-01-16T10:43:24.696Z,97966.71
2024-01-16T10:44:28.093Z,97975.39
2024-01-16T10:45:33.549Z,98009.46
2024-01-16T10:46:40.457Z,98000.86
2024-01-16T10:47:43.165Z,97989.46
2024-01-16T10:48:49.082Z,97990.39
2024-01-16T10:49:52.036Z,97986.34
2024-01-16T10:50:54.633Z,97985.09
2024-01-16T10:51:57.287Z,98001.63
2024-01-16T10:53:10.301Z,97985.72
2024-01-16T10:54:17.582Z,98001.55
2024-01-16T10:55:22.982Z,98002.11
2024-01-16T10:56:28.429Z,98001.98
2024-01-16T10:57:33.676Z,98001.48
2024-01-16T10:58:39.310Z,97997.69
2024-01-16T10:59:51.839Z,98004.66
2024-01-16T11:00:57.769Z,98008.23
2024-01-16T11:02:04.512Z,98003.23
2024-01-16T11:03:13.846Z,98006.34
2024-01-16T11:04:17.268Z,98009.70
2024-01-16T11:05:22.440Z,98011.97
2024-01-16T11:06:27.730Z,98001.55
2024-01-16T11:07:31.177Z,98006.38
2024-01-16T11:08:36.615Z,98003.31
2024-01-16T11:09:41.375Z,98021.78
2024-01-16T11:10:45.588Z,98025.06
2024-01-16T11:11:48.102Z,98017.54
2024-01-16T11:12:52.128Z,98022.05
2024-01-16T11:13:55.775Z,98025.55
2024-01-16T11:15:01.893Z,98018.42
2024-01-16T11:16:05.874Z,98020.55
2024-01-16T11:17:11.138Z,98018.34
2024-01-16T11:18:16.486Z,98033.41
2024-01-16T11:19:37.732Z,98028.45
2024-01-16T11:20:47.805Z,98032.27
2024-01-16T11:21:34.993Z,98022.34
2024-01-16T11:22:44.411Z,98041.88
2024-01-16T11:23:49.682Z,98025.80
2024-01-16T11:25:13.447Z,98019.02
2024-01-16T11:26:31.710Z,98029.73
2024-01-16T11:27:35.082Z,98059.56
2024-01-16T11:28:37.191Z,98029.06
2024-01-16T11:29:40.103Z,98041.70
2024-01-16T11:30:45.975Z,98036.96
2024-01-16T11:31:48.749Z,98049.25
2024-01-16T11:32:51.520Z,98046.75
2024-01-16T11:33:54.597Z,98027.30
2024-01-16T11:34:56.895Z,98033.98
2024-01-16T11:36:00.553Z,98045.52
2024-01-16T11:37:06.682Z,98043.88
2024-01-16T11:38:18.465Z,98052.23
2024-01-16T11:39:22.892Z,98038.25
2024-01-16T11:40:26.892Z,98055.03
2024-01-16T11:41:56.005Z,98063.31
2024-01-16T11:42:59.935Z,98051.80
2024-01-16T11:44:02.327Z,98058.09
2024-01-16T11:45:08.104Z,98045.80
2024-01-16T11:46:12.266Z,98063.94
2024-01-16T11:47:19.519Z,98051.65
2024-01-16T11:48:22.261Z,98069.99
2024-01-16T11:49:25.056Z,98079.84
2024-01-16T11:50:31.051Z,98076.78
2024-01-16T11:51:34.178Z,98076.84
2024-01-16T11:52:44.170Z,98066.45
2024-01-16T11:53:47.662Z,98072.08
2024-01-16T11:54:50.642Z,98072.49
2024-01-16T11:56:11.962Z,98080.84
2024-01-16T11:57:27.627Z,98098.19
2024-01-16T11:58:53.407Z,98104.13
2024-01-16T12:00:02.407Z,98093.53
2024-01-16T12:01:06.979Z,98087.10
2024-01-16T12:02:21.791Z,98073.94
2024-01-16T12:03:32.009Z,98086.11
2024-01-16T12:04:29.394Z,98100.17
2024-01-16T12:05:32.667Z,98093.21
2024-01-16T12:06:38.042Z,98088.80
2024-01-16T12:07:45.923Z,98099.80
2024-01-16T12:08:48.390Z,98097.27
2024-01-16T12:09:51.138Z,98087.71
2024-01-16T12:10:53.568Z,98097.77
2024-01-16T12:12:01.730Z,98092.36
2024-01-16T12:13:05.708Z,98097.36
2024-01-16T12:14:08.229Z,98106.91
2024-01-16T12:15:21.822Z,98098.62
2024-01-16T12:16:24.536Z,98115.80
2024-01-16T12:17:26.811Z,98131.36
2024-01-16T12:18:38.511Z,98121.34
2024-01-16T12:19:34.280Z,98113.96
2024-01-16T12:20:38.941Z,98158.95
2024-01-16T12:21:45.954Z,98158.95
2024-01-16T12:22:57.858Z,98131.42
2024-01-16T12:24:08.726Z,98120.78
2024-01-16T12:25:06.806Z,98122.54
2024-01-16T12:26:09.518Z,98122.30
2024-01-16T12:27:12.273Z,98132.45
2024-01-16T12:28:24.399Z,98134.34
2024-01-16T12:29:20.940Z,98142.96
2024-01-16T12:30:26.648Z,98143.08
2024-01-16T12:31:30.690Z,98143.38